sim
Sign-in with your pilot id or email,
or register
Callsign
Passwort

Schedule Details

Flight Number: OEO6153
Departure: Dallas Fort Worth International Airport (KDFW) at 22:25
Arrival: Munich Airport (EDDM) at 08:40

Weather Information
Getting current METAR information for KDFW 201753Z 05008G20KT 10SM FEW035 24/14 A3014 RMK AO2 SLP201 T02440144 10250 20139 58009
Getting current METAR information for EDDM 201750Z 04003KT 010V070 CAVOK 16/11 Q1015 NOSIG

Schedule Frequency

Route Map